sensor_id;sensor_type;location;lat;lon;timestamp;pressure;altitude;pressure_sealevel;temperature;humidity
78206;BME280;67480;48.920;12.880;2024-02-28T00:01:02;96720.59;;;5.94;72.76
78206;BME280;67480;48.920;12.880;2024-02-28T00:03:27;96716.38;;;5.93;72.84
78206;BME280;67480;48.920;12.880;2024-02-28T00:05:52;96708.78;;;5.92;72.79
78206;BME280;67480;48.920;12.880;2024-02-28T00:08:18;96714.16;;;5.90;72.93
78206;BME280;67480;48.920;12.880;2024-02-28T00:10:45;96709.97;;;5.89;72.63
78206;BME280;67480;48.920;12.880;2024-02-28T00:13:10;96709.97;;;5.89;72.36
78206;BME280;67480;48.920;12.880;2024-02-28T00:15:36;96706.75;;;5.87;72.46
78206;BME280;67480;48.920;12.880;2024-02-28T00:18:01;96712.75;;;5.87;72.43
78206;BME280;67480;48.920;12.880;2024-02-28T00:20:27;96715.97;;;5.83;72.38
78206;BME280;67480;48.920;12.880;2024-02-28T00:22:53;96723.16;;;5.81;72.02
78206;BME280;67480;48.920;12.880;2024-02-28T00:25:18;96722.75;;;5.77;72.09
78206;BME280;67480;48.920;12.880;2024-02-28T00:27:44;96729.13;;;5.75;72.16
78206;BME280;67480;48.920;12.880;2024-02-28T00:30:09;96727.88;;;5.71;72.15
78206;BME280;67480;48.920;12.880;2024-02-28T00:32:35;96719.50;;;5.69;72.18
78206;BME280;67480;48.920;12.880;2024-02-28T00:35:00;96717.69;;;5.69;72.31
78206;BME280;67480;48.920;12.880;2024-02-28T00:37:25;96726.50;;;5.68;72.19
78206;BME280;67480;48.920;12.880;2024-02-28T00:39:51;96732.88;;;5.65;71.95
78206;BME280;67480;48.920;12.880;2024-02-28T00:42:16;96733.88;;;5.64;71.65
78206;BME280;67480;48.920;12.880;2024-02-28T00:44:41;96740.06;;;5.63;71.88
78206;BME280;67480;48.920;12.880;2024-02-28T00:47:08;96737.84;;;5.60;71.81
78206;BME280;67480;48.920;12.880;2024-02-28T00:49:34;96745.66;;;5.60;71.69
78206;BME280;67480;48.920;12.880;2024-02-28T00:52:00;96746.63;;;5.59;71.89
78206;BME280;67480;48.920;12.880;2024-02-28T00:54:25;96738.63;;;5.54;71.87
78206;BME280;67480;48.920;12.880;2024-02-28T00:56:51;96746.00;;;5.51;72.06
78206;BME280;67480;48.920;12.880;2024-02-28T00:59:16;96745.59;;;5.54;72.07
78206;BME280;67480;48.920;12.880;2024-02-28T01:01:41;96744.22;;;5.51;72.29
78206;BME280;67480;48.920;12.880;2024-02-28T01:04:07;96756.97;;;5.46;72.08
78206;BME280;67480;48.920;12.880;2024-02-28T01:06:32;96750.38;;;5.50;72.19
78206;BME280;67480;48.920;12.880;2024-02-28T01:08:58;96753.00;;;5.50;71.39
78206;BME280;67480;48.920;12.880;2024-02-28T01:11:24;96749.78;;;5.48;71.60
78206;BME280;67480;48.920;12.880;2024-02-28T01:13:49;96759.56;;;5.46;71.67
78206;BME280;67480;48.920;12.880;2024-02-28T01:16:15;96759.56;;;5.46;71.29
78206;BME280;67480;48.920;12.880;2024-02-28T01:18:41;96757.34;;;5.43;71.55
78206;BME280;67480;48.920;12.880;2024-02-28T01:21:07;96761.13;;;5.40;72.14
78206;BME280;67480;48.920;12.880;2024-02-28T01:23:32;96762.13;;;5.39;71.92
78206;BME280;67480;48.920;12.880;2024-02-28T01:25:57;96764.53;;;5.41;71.60
78206;BME280;67480;48.920;12.880;2024-02-28T01:28:23;96765.72;;;5.38;71.29
78206;BME280;67480;48.920;12.880;2024-02-28T01:30:48;96766.88;;;5.29;71.76
78206;BME280;67480;48.920;12.880;2024-02-28T01:33:14;96765.84;;;5.30;72.11
78206;BME280;67480;48.920;12.880;2024-02-28T01:35:39;96776.50;;;5.35;71.61
78206;BME280;67480;48.920;12.880;2024-02-28T01:38:05;96778.88;;;5.37;72.49
78206;BME280;67480;48.920;12.880;2024-02-28T01:40:30;96775.31;;;5.38;72.23
78206;BME280;67480;48.920;12.880;2024-02-28T01:43:02;96784.53;;;5.40;72.08
78206;BME280;67480;48.920;12.880;2024-02-28T01:45:28;96779.50;;;5.39;72.05
78206;BME280;67480;48.920;12.880;2024-02-28T01:47:54;96784.09;;;5.37;71.81
78206;BME280;67480;48.920;12.880;2024-02-28T01:50:19;96778.28;;;5.35;71.92
78206;BME280;67480;48.920;12.880;2024-02-28T01:52:45;96777.66;;;5.33;72.19
78206;BME280;67480;48.920;12.880;2024-02-28T01:55:10;96788.44;;;5.30;72.20
78206;BME280;67480;48.920;12.880;2024-02-28T01:57:37;96794.66;;;5.29;71.90
78206;BME280;67480;48.920;12.880;2024-02-28T02:00:03;96796.25;;;5.30;71.66
78206;BME280;67480;48.920;12.880;2024-02-28T02:02:29;96795.44;;;5.29;71.93
78206;BME280;67480;48.920;12.880;2024-02-28T02:04:54;96798.84;;;5.30;71.88
78206;BME280;67480;48.920;12.880;2024-02-28T02:07:23;96806.00;;;5.28;71.33
78206;BME280;67480;48.920;12.880;2024-02-28T02:09:48;96802.78;;;5.26;71.36
78206;BME280;67480;48.920;12.880;2024-02-28T02:12:15;96811.97;;;5.21;71.72
78206;BME280;67480;48.920;12.880;2024-02-28T02:14:41;96819.59;;;5.23;71.78
78206;BME280;67480;48.920;12.880;2024-02-28T02:17:07;96828.56;;;5.20;71.71
78206;BME280;67480;48.920;12.880;2024-02-28T02:19:32;96829.53;;;5.19;71.34
78206;BME280;67480;48.920;12.880;2024-02-28T02:21:58;96832.75;;;5.21;71.32
78206;BME280;67480;48.920;12.880;2024-02-28T02:24:24;96837.31;;;5.19;71.67
78206;BME280;67480;48.920;12.880;2024-02-28T02:26:49;96842.34;;;5.21;71.42
78206;BME280;67480;48.920;12.880;2024-02-28T02:29:17;96849.13;;;5.22;71.99
78206;BME280;67480;48.920;12.880;2024-02-28T02:31:42;96852.75;;;5.21;72.01
78206;BME280;67480;48.920;12.880;2024-02-28T02:34:08;96855.50;;;5.19;71.61
78206;BME280;67480;48.920;12.880;2024-02-28T02:36:33;96865.91;;;5.19;71.26
78206;BME280;67480;48.920;12.880;2024-02-28T02:38:59;96871.47;;;5.16;71.62
78206;BME280;67480;48.920;12.880;2024-02-28T02:41:24;96874.06;;;5.16;71.71
78206;BME280;67480;48.920;12.880;2024-02-28T02:43:50;96878.63;;;5.14;71.48
78206;BME280;67480;48.920;12.880;2024-02-28T02:46:15;96880.25;;;5.15;71.30
78206;BME280;67480;48.920;12.880;2024-02-28T02:48:40;96871.03;;;5.13;71.13
78206;BME280;67480;48.920;12.880;2024-02-28T02:51:06;96868.03;;;5.09;71.51
78206;BME280;67480;48.920;12.880;2024-02-28T02:53:31;96868.63;;;5.11;71.62
78206;BME280;67480;48.920;12.880;2024-02-28T02:55:56;96861.19;;;5.08;71.58
78206;BME280;67480;48.920;12.880;2024-02-28T02:58:22;96855.63;;;5.11;71.67
78206;BME280;67480;48.920;12.880;2024-02-28T03:00:47;96853.41;;;5.08;72.05
78206;BME280;67480;48.920;12.880;2024-02-28T03:03:12;96870.84;;;5.14;71.77
78206;BME280;67480;48.920;12.880;2024-02-28T03:05:38;96863.06;;;5.14;72.33
78206;BME280;67480;48.920;12.880;2024-02-28T03:08:03;96862.25;;;5.14;71.95
78206;BME280;67480;48.920;12.880;2024-02-28T03:10:29;96870.84;;;5.14;71.38
78206;BME280;67480;48.920;12.880;2024-02-28T03:12:54;96857.44;;;5.11;72.01
78206;BME280;67480;48.920;12.880;2024-02-28T03:15:20;96873.81;;;5.11;71.68
78206;BME280;67480;48.920;12.880;2024-02-28T03:17:45;96874.81;;;5.10;71.95
78206;BME280;67480;48.920;12.880;2024-02-28T03:20:11;96874.56;;;5.05;72.09
78206;BME280;67480;48.920;12.880;2024-02-28T03:22:38;96868.56;;;5.05;71.87
78206;BME280;67480;48.920;12.880;2024-02-28T03:25:04;96878.34;;;5.03;72.10
78206;BME280;67480;48.920;12.880;2024-02-28T03:27:29;96870.53;;;5.03;72.31
78206;BME280;67480;48.920;12.880;2024-02-28T03:29:55;96869.75;;;5.02;72.07
78206;BME280;67480;48.920;12.880;2024-02-28T03:32:20;96871.72;;;5.00;72.38
78206;BME280;67480;48.920;12.880;2024-02-28T03:34:45;96870.75;;;5.01;72.61
78206;BME280;67480;48.920;12.880;2024-02-28T03:37:11;96870.91;;;4.99;72.42
78206;BME280;67480;48.920;12.880;2024-02-28T03:39:36;96873.09;;;4.96;72.03
78206;BME280;67480;48.920;12.880;2024-02-28T03:42:02;96880.88;;;4.96;72.57
78206;BME280;67480;48.920;12.880;2024-02-28T03:44:27;96874.88;;;4.95;72.33
78206;BME280;67480;48.920;12.880;2024-02-28T03:46:52;96880.88;;;4.96;72.02
78206;BME280;67480;48.920;12.880;2024-02-28T03:49:18;96883.47;;;4.96;72.25
78206;BME280;67480;48.920;12.880;2024-02-28T03:51:43;96888.66;;;4.96;71.99
78206;BME280;67480;48.920;12.880;2024-02-28T03:54:09;96888.03;;;4.94;72.07
78206;BME280;67480;48.920;12.880;2024-02-28T03:56:34;96887.66;;;4.97;71.56
78206;BME280;67480;48.920;12.880;2024-02-28T03:59:01;96884.81;;;4.92;72.00
78206;BME280;67480;48.920;12.880;2024-02-28T04:01:26;96890.22;;;4.90;71.61
78206;BME280;67480;48.920;12.880;2024-02-28T04:03:51;96888.16;;;4.86;71.79
78206;BME280;67480;48.920;12.880;2024-02-28T04:06:17;96881.00;;;4.88;71.61
78206;BME280;67480;48.920;12.880;2024-02-28T04:08:42;96899.53;;;4.85;71.70
78206;BME280;67480;48.920;12.880;2024-02-28T04:11:08;96894.97;;;4.87;71.62
78206;BME280;67480;48.920;12.880;2024-02-28T04:13:34;96897.75;;;4.85;71.26
78206;BME280;67480;48.920;12.880;2024-02-28T04:15:59;96894.34;;;4.85;71.58
78206;BME280;67480;48.920;12.880;2024-02-28T04:18:25;96893.91;;;4.81;71.50
78206;BME280;67480;48.920;12.880;2024-02-28T04:20:51;96893.44;;;4.77;71.44
78206;BME280;67480;48.920;12.880;2024-02-28T04:23:16;96890.50;;;4.81;71.17
78206;BME280;67480;48.920;12.880;2024-02-28T04:25:42;96889.88;;;4.79;71.77
78206;BME280;67480;48.920;12.880;2024-02-28T04:28:07;96890.25;;;4.75;71.97
78206;BME280;67480;48.920;12.880;2024-02-28T04:30:34;96885.44;;;4.72;71.93
78206;BME280;67480;48.920;12.880;2024-02-28T04:32:59;96890.25;;;4.75;71.96
78206;BME280;67480;48.920;12.880;2024-02-28T04:35:24;96893.38;;;4.71;71.76
78206;BME280;67480;48.920;12.880;2024-02-28T04:37:50;96892.59;;;4.70;72.41
78206;BME280;67480;48.920;12.880;2024-02-28T04:40:15;96896.34;;;4.68;72.22
78206;BME280;67480;48.920;12.880;2024-02-28T04:42:41;96906.91;;;4.66;72.93
78206;BME280;67480;48.920;12.880;2024-02-28T04:45:08;96918.72;;;4.69;72.65
78206;BME280;67480;48.920;12.880;2024-02-28T04:47:33;96911.72;;;4.69;72.94
78206;BME280;67480;48.920;12.880;2024-02-28T04:49:59;96918.13;;;4.67;72.91
78206;BME280;67480;48.920;12.880;2024-02-28T04:52:24;96923.31;;;4.67;72.63
78206;BME280;67480;48.920;12.880;2024-02-28T04:54:50;96931.25;;;4.65;72.89
78206;BME280;67480;48.920;12.880;2024-02-28T04:57:16;96944.88;;;4.67;72.80
78206;BME280;67480;48.920;12.880;2024-02-28T04:59:44;96962.41;;;4.65;73.15
78206;BME280;67480;48.920;12.880;2024-02-28T05:02:10;96962.06;;;4.68;73.12
78206;BME280;67480;48.920;12.880;2024-02-28T05:04:35;96968.84;;;4.69;73.44
78206;BME280;67480;48.920;12.880;2024-02-28T05:07:01;96977.63;;;4.68;73.10
78206;BME280;67480;48.920;12.880;2024-02-28T05:09:26;96968.03;;;4.69;73.22
78206;BME280;67480;48.920;12.880;2024-02-28T05:11:52;96979.41;;;4.68;72.99
78206;BME280;67480;48.920;12.880;2024-02-28T05:14:17;96980.41;;;4.67;73.22
78206;BME280;67480;48.920;12.880;2024-02-28T05:16:43;96985.78;;;4.65;73.30
78206;BME280;67480;48.920;12.880;2024-02-28T05:19:08;96984.78;;;4.66;73.48
78206;BME280;67480;48.920;12.880;2024-02-28T05:21:41;96985.16;;;4.63;73.80
78206;BME280;67480;48.920;12.880;2024-02-28T05:24:07;96987.56;;;4.65;73.66
78206;BME280;67480;48.920;12.880;2024-02-28T05:26:36;96985.94;;;4.64;73.81
78206;BME280;67480;48.920;12.880;2024-02-28T05:29:03;96998.75;;;4.65;73.21
78206;BME280;67480;48.920;12.880;2024-02-28T05:31:29;96999.28;;;4.61;73.77
78206;BME280;67480;48.920;12.880;2024-02-28T05:33:57;97003.94;;;4.65;73.38
78206;BME280;67480;48.920;12.880;2024-02-28T05:36:23;97003.31;;;4.63;73.40
78206;BME280;67480;48.920;12.880;2024-02-28T05:38:49;97012.72;;;4.64;73.51
78206;BME280;67480;48.920;12.880;2024-02-28T05:41:18;97003.59;;;4.68;73.61
78206;BME280;67480;48.920;12.880;2024-02-28T05:43:44;97013.91;;;4.62;74.06
78206;BME280;67480;48.920;12.880;2024-02-28T05:46:11;97015.31;;;4.64;73.47
78206;BME280;67480;48.920;12.880;2024-02-28T05:48:36;97026.69;;;4.63;73.43
78206;BME280;67480;48.920;12.880;2024-02-28T05:51:02;97025.72;;;4.64;73.47
78206;BME280;67480;48.920;12.880;2024-02-28T05:53:28;97035.91;;;4.66;73.35
78206;BME280;67480;48.920;12.880;2024-02-28T05:55:57;97036.69;;;4.66;73.44
78206;BME280;67480;48.920;12.880;2024-02-28T05:58:23;97039.94;;;4.68;73.54
78206;BME280;67480;48.920;12.880;2024-02-28T06:00:49;97048.34;;;4.70;73.05
78206;BME280;67480;48.920;12.880;2024-02-28T06:03:14;97057.56;;;4.73;73.38
78206;BME280;67480;48.920;12.880;2024-02-28T06:05:40;97047.19;;;4.73;73.43
78206;BME280;67480;48.920;12.880;2024-02-28T06:08:08;97040.19;;;4.73;73.48
78206;BME280;67480;48.920;12.880;2024-02-28T06:10:34;97062.78;;;4.73;73.55
78206;BME280;67480;48.920;12.880;2024-02-28T06:13:02;97071.34;;;4.73;73.25
78206;BME280;67480;48.920;12.880;2024-02-28T06:15:28;97071.09;;;4.68;73.41
78206;BME280;67480;48.920;12.880;2024-02-28T06:17:56;97083.06;;;4.69;73.34
78206;BME280;67480;48.920;12.880;2024-02-28T06:20:21;97091.84;;;4.68;73.78
78206;BME280;67480;48.920;12.880;2024-02-28T06:22:47;97084.69;;;4.70;73.58
78206;BME280;67480;48.920;12.880;2024-02-28T06:25:12;97096.03;;;4.69;73.45
78206;BME280;67480;48.920;12.880;2024-02-28T06:27:47;97098.66;;;4.69;73.58
78206;BME280;67480;48.920;12.880;2024-02-28T06:30:12;97096.88;;;4.70;73.42
78206;BME280;67480;48.920;12.880;2024-02-28T06:32:38;97096.69;;;4.71;73.91
78206;BME280;67480;48.920;12.880;2024-02-28T06:35:04;97099.91;;;4.73;73.50
78206;BME280;67480;48.920;12.880;2024-02-28T06:37:30;97101.50;;;4.74;73.98
78206;BME280;67480;48.920;12.880;2024-02-28T06:39:55;97091.13;;;4.74;73.72
78206;BME280;67480;48.920;12.880;2024-02-28T06:42:21;97092.75;;;4.75;73.68
78206;BME280;67480;48.920;12.880;2024-02-28T06:44:46;97095.34;;;4.75;73.81
78206;BME280;67480;48.920;12.880;2024-02-28T06:47:11;97110.75;;;4.77;73.40
78206;BME280;67480;48.920;12.880;2024-02-28T06:49:37;97100.19;;;4.79;73.59
78206;BME280;67480;48.920;12.880;2024-02-28T06:52:02;97097.25;;;4.82;73.54
78206;BME280;67480;48.920;12.880;2024-02-28T06:54:28;97094.00;;;4.80;73.55
78206;BME280;67480;48.920;12.880;2024-02-28T06:56:54;97099.84;;;4.82;73.80
78206;BME280;67480;48.920;12.880;2024-02-28T06:59:19;97102.44;;;4.82;73.67
78206;BME280;67480;48.920;12.880;2024-02-28T07:01:45;97115.41;;;4.82;74.07
78206;BME280;67480;48.920;12.880;2024-02-28T07:04:13;97104.84;;;4.83;74.16
78206;BME280;67480;48.920;12.880;2024-02-28T07:06:39;97108.06;;;4.85;73.57
78206;BME280;67480;48.920;12.880;2024-02-28T07:09:07;97116.50;;;4.87;74.30
78206;BME280;67480;48.920;12.880;2024-02-28T07:11:33;97122.66;;;4.86;74.17
78206;BME280;67480;48.920;12.880;2024-02-28T07:13:58;97130.28;;;4.88;74.14
78206;BME280;67480;48.920;12.880;2024-02-28T07:16:27;97127.69;;;4.88;74.26
78206;BME280;67480;48.920;12.880;2024-02-28T07:18:53;97136.63;;;4.85;74.40
78206;BME280;67480;48.920;12.880;2024-02-28T07:21:18;97128.69;;;4.87;74.36
78206;BME280;67480;48.920;12.880;2024-02-28T07:23:44;97133.88;;;4.87;73.98
78206;BME280;67480;48.920;12.880;2024-02-28T07:26:16;97127.69;;;4.88;74.28
78206;BME280;67480;48.920;12.880;2024-02-28T07:28:42;97134.47;;;4.89;74.50
78206;BME280;67480;48.920;12.880;2024-02-28T07:31:14;97150.06;;;4.89;74.38
78206;BME280;67480;48.920;12.880;2024-02-28T07:33:40;97151.69;;;4.90;74.56
78206;BME280;67480;48.920;12.880;2024-02-28T07:36:05;97152.66;;;4.89;74.76
78206;BME280;67480;48.920;12.880;2024-02-28T07:38:31;97151.69;;;4.90;74.34
78206;BME280;67480;48.920;12.880;2024-02-28T07:40:56;97154.91;;;4.92;74.40
78206;BME280;67480;48.920;12.880;2024-02-28T07:43:22;97167.06;;;4.91;74.12
78206;BME280;67480;48.920;12.880;2024-02-28T07:45:47;97163.50;;;4.92;74.49
78206;BME280;67480;48.920;12.880;2024-02-28T07:48:12;97159.13;;;4.93;74.90
78206;BME280;67480;48.920;12.880;2024-02-28T07:50:38;97162.53;;;4.93;74.27
78206;BME280;67480;48.920;12.880;2024-02-28T07:53:04;97163.31;;;4.94;74.10
78206;BME280;67480;48.920;12.880;2024-02-28T07:55:29;97159.94;;;4.93;74.29
78206;BME280;67480;48.920;12.880;2024-02-28T07:57:55;97161.72;;;4.93;74.51
78206;BME280;67480;48.920;12.880;2024-02-28T08:00:20;97164.13;;;4.94;74.36
78206;BME280;67480;48.920;12.880;2024-02-28T08:02:46;97168.53;;;4.94;74.66
78206;BME280;67480;48.920;12.880;2024-02-28T08:05:13;97158.94;;;4.94;74.88
78206;BME280;67480;48.920;12.880;2024-02-28T08:07:43;97150.97;;;4.96;74.91
78206;BME280;67480;48.920;12.880;2024-02-28T08:10:08;97157.78;;;4.97;74.98
78206;BME280;67480;48.920;12.880;2024-02-28T08:12:35;97151.78;;;4.96;74.83
78206;BME280;67480;48.920;12.880;2024-02-28T08:15:01;97161.16;;;4.97;74.73
78206;BME280;67480;48.920;12.880;2024-02-28T08:17:27;97165.56;;;4.97;74.97
78206;BME280;67480;48.920;12.880;2024-02-28T08:19:52;97167.34;;;4.96;75.07
78206;BME280;67480;48.920;12.880;2024-02-28T08:22:17;97164.59;;;4.98;74.67
78206;BME280;67480;48.920;12.880;2024-02-28T08:24:43;97165.41;;;4.98;75.03
78206;BME280;67480;48.920;12.880;2024-02-28T08:27:08;97163.59;;;4.99;75.00
78206;BME280;67480;48.920;12.880;2024-02-28T08:29:33;97158.25;;;5.01;75.06
78206;BME280;67480;48.920;12.880;2024-02-28T08:32:01;97156.25;;;5.03;75.27
78206;BME280;67480;48.920;12.880;2024-02-28T08:34:26;97162.59;;;5.00;74.43
78206;BME280;67480;48.920;12.880;2024-02-28T08:36:52;97165.84;;;5.02;74.54
78206;BME280;67480;48.920;12.880;2024-02-28T08:39:17;97171.84;;;5.03;74.84
78206;BME280;67480;48.920;12.880;2024-02-28T08:41:42;97175.88;;;5.05;75.25
78206;BME280;67480;48.920;12.880;2024-02-28T08:44:08;97173.91;;;5.07;75.34
78206;BME280;67480;48.920;12.880;2024-02-28T08:46:33;97179.09;;;5.07;74.88
78206;BME280;67480;48.920;12.880;2024-02-28T08:48:58;97174.72;;;5.08;75.69
78206;BME280;67480;48.920;12.880;2024-02-28T08:51:24;97174.72;;;5.08;75.08
78206;BME280;67480;48.920;12.880;2024-02-28T08:53:49;97173.56;;;5.10;75.55
78206;BME280;67480;48.920;12.880;2024-02-28T08:56:17;97175.16;;;5.11;75.08
78206;BME280;67480;48.920;12.880;2024-02-28T08:58:42;97174.34;;;5.11;75.15
78206;BME280;67480;48.920;12.880;2024-02-28T09:01:13;97177.75;;;5.11;75.10
78206;BME280;67480;48.920;12.880;2024-02-28T09:03:39;97173.56;;;5.10;75.55
78206;BME280;67480;48.920;12.880;2024-02-28T09:06:04;97176.59;;;5.14;74.92
78206;BME280;67480;48.920;12.880;2024-02-28T09:08:30;97177.41;;;5.14;75.19
78206;BME280;67480;48.920;12.880;2024-02-28T09:10:55;97180.81;;;5.15;75.40
78206;BME280;67480;48.920;12.880;2024-02-28T09:13:20;97188.41;;;5.16;76.12
78206;BME280;67480;48.920;12.880;2024-02-28T09:15:46;97180.63;;;5.16;75.80
78206;BME280;67480;48.920;12.880;2024-02-28T09:18:11;97193.63;;;5.16;76.32
78206;BME280;67480;48.920;12.880;2024-02-28T09:20:37;97180.63;;;5.16;75.99
78206;BME280;67480;48.920;12.880;2024-02-28T09:23:02;97196.84;;;5.18;76.34
78206;BME280;67480;48.920;12.880;2024-02-28T09:25:27;97195.69;;;5.21;76.52
78206;BME280;67480;48.920;12.880;2024-02-28T09:27:53;97205.91;;;5.22;76.80
78206;BME280;67480;48.920;12.880;2024-02-28T09:30:18;97198.94;;;5.23;76.39
78206;BME280;67480;48.920;12.880;2024-02-28T09:32:44;97211.09;;;5.22;77.08
78206;BME280;67480;48.920;12.880;2024-02-28T09:35:09;97215.94;;;5.26;77.30
78206;BME280;67480;48.920;12.880;2024-02-28T09:37:37;97219.34;;;5.26;76.83
78206;BME280;67480;48.920;12.880;2024-02-28T09:40:02;97223.03;;;5.32;77.20
78206;BME280;67480;48.920;12.880;2024-02-28T09:42:28;97226.59;;;5.31;77.01
78206;BME280;67480;48.920;12.880;2024-02-28T09:44:54;97229.19;;;5.31;76.69
78206;BME280;67480;48.920;12.880;2024-02-28T09:47:19;97231.78;;;5.31;77.20
78206;BME280;67480;48.920;12.880;2024-02-28T09:49:49;97238.44;;;5.33;77.29
78206;BME280;67480;48.920;12.880;2024-02-28T09:52:15;97246.22;;;5.33;76.44
78206;BME280;67480;48.920;12.880;2024-02-28T09:54:40;97253.84;;;5.35;77.22
78206;BME280;67480;48.920;12.880;2024-02-28T09:57:11;97254.47;;;5.37;77.11
78206;BME280;67480;48.920;12.880;2024-02-28T09:59:36;97243.63;;;5.33;76.95
78206;BME280;67480;48.920;12.880;2024-02-28T10:02:03;97253.84;;;5.35;76.85
78206;BME280;67480;48.920;12.880;2024-02-28T10:04:29;97258.69;;;5.38;77.02
78206;BME280;67480;48.920;12.880;2024-02-28T10:06:56;97262.25;;;5.37;77.52
78206;BME280;67480;48.920;12.880;2024-02-28T10:09:21;97262.25;;;5.37;77.24
78206;BME280;67480;48.920;12.880;2024-02-28T10:11:46;97267.47;;;5.37;77.08
78206;BME280;67480;48.920;12.880;2024-02-28T10:14:17;97270.69;;;5.39;77.00
78206;BME280;67480;48.920;12.880;2024-02-28T10:16:43;97269.09;;;5.38;76.48
78206;BME280;67480;48.920;12.880;2024-02-28T10:19:09;97278.69;;;5.37;76.82
78206;BME280;67480;48.920;12.880;2024-02-28T10:21:37;97279.50;;;5.38;76.91
78206;BME280;67480;48.920;12.880;2024-02-28T10:24:02;97289.25;;;5.36;76.96
78206;BME280;67480;48.920;12.880;2024-02-28T10:26:28;97291.50;;;5.39;76.63
78206;BME280;67480;48.920;12.880;2024-02-28T10:28:56;97298.31;;;5.40;77.21
78206;BME280;67480;48.920;12.880;2024-02-28T10:31:22;97295.88;;;5.38;76.46
78206;BME280;67480;48.920;12.880;2024-02-28T10:33:47;97300.91;;;5.40;77.04
78206;BME280;67480;48.920;12.880;2024-02-28T10:36:13;97300.72;;;5.41;76.46
78206;BME280;67480;48.920;12.880;2024-02-28T10:38:38;97305.13;;;5.41;77.07
78206;BME280;67480;48.920;12.880;2024-02-28T10:41:06;97305.94;;;5.41;76.18
78206;BME280;67480;48.920;12.880;2024-02-28T10:43:32;97306.72;;;5.42;76.34
78206;BME280;67480;48.920;12.880;2024-02-28T10:46:00;97310.13;;;5.42;76.71
78206;BME280;67480;48.920;12.880;2024-02-28T10:48:26;97301.53;;;5.42;76.93
78206;BME280;67480;48.920;12.880;2024-02-28T10:50:52;97309.16;;;5.43;76.18
78206;BME280;67480;48.920;12.880;2024-02-28T10:53:21;97313.38;;;5.44;77.05
78206;BME280;67480;48.920;12.880;2024-02-28T10:55:48;97313.22;;;5.46;77.34
78206;BME280;67480;48.920;12.880;2024-02-28T10:58:14;97308.00;;;5.46;76.68
78206;BME280;67480;48.920;12.880;2024-02-28T11:00:41;97304.78;;;5.44;76.52
78206;BME280;67480;48.920;12.880;2024-02-28T11:03:10;97302.97;;;5.44;76.54
78206;BME280;67480;48.920;12.880;2024-02-28T11:05:40;97313.38;;;5.44;76.36
78206;BME280;67480;48.920;12.880;2024-02-28T11:08:10;97314.81;;;5.47;76.88
78206;BME280;67480;48.920;12.880;2024-02-28T11:10:40;97304.41;;;5.47;76.80
78206;BME280;67480;48.920;12.880;2024-02-28T11:13:06;97300.81;;;5.48;76.92
78206;BME280;67480;48.920;12.880;2024-02-28T11:15:33;97308.81;;;5.47;77.05
78206;BME280;67480;48.920;12.880;2024-02-28T11:18:08;97309.59;;;5.47;76.91
78206;BME280;67480;48.920;12.880;2024-02-28T11:20:34;97310.41;;;5.48;77.37
78206;BME280;67480;48.920;12.880;2024-02-28T11:23:00;97310.06;;;5.51;77.14
78206;BME280;67480;48.920;12.880;2024-02-28T11:25:25;97312.66;;;5.51;76.92
78206;BME280;67480;48.920;12.880;2024-02-28T11:27:51;97310.88;;;5.51;77.33
78206;BME280;67480;48.920;12.880;2024-02-28T11:30:16;97305.84;;;5.50;77.10
78206;BME280;67480;48.920;12.880;2024-02-28T11:32:42;97306.00;;;5.48;76.77
78206;BME280;67480;48.920;12.880;2024-02-28T11:35:09;97304.06;;;5.50;76.67
78206;BME280;67480;48.920;12.880;2024-02-28T11:37:35;97309.25;;;5.50;76.87
78206;BME280;67480;48.920;12.880;2024-02-28T11:40:00;97315.09;;;5.52;77.17
78206;BME280;67480;48.920;12.880;2024-02-28T11:42:26;97313.50;;;5.51;77.60
78206;BME280;67480;48.920;12.880;2024-02-28T11:44:54;97313.13;;;5.54;77.87
78206;BME280;67480;48.920;12.880;2024-02-28T11:47:22;97311.50;;;5.53;77.42
78206;BME280;67480;48.920;12.880;2024-02-28T11:49:48;97318.94;;;5.56;77.27
78206;BME280;67480;48.920;12.880;2024-02-28T11:52:14;97310.97;;;5.58;77.72
78206;BME280;67480;48.920;12.880;2024-02-28T11:54:39;97317.34;;;5.55;77.03
78206;BME280;67480;48.920;12.880;2024-02-28T11:57:05;97315.72;;;5.54;77.88
78206;BME280;67480;48.920;12.880;2024-02-28T11:59:32;97322.53;;;5.55;77.78
78206;BME280;67480;48.920;12.880;2024-02-28T12:01:57;97315.19;;;5.59;78.16
78206;BME280;67480;48.920;12.880;2024-02-28T12:04:26;97317.78;;;5.59;78.31
78206;BME280;67480;48.920;12.880;2024-02-28T12:06:51;97316.97;;;5.58;77.61
78206;BME280;67480;48.920;12.880;2024-02-28T12:09:17;97319.41;;;5.60;78.28
78206;BME280;67480;48.920;12.880;2024-02-28T12:11:43;97315.97;;;5.59;77.92
78206;BME280;67480;48.920;12.880;2024-02-28T12:14:09;97321.19;;;5.59;77.67
78206;BME280;67480;48.920;12.880;2024-02-28T12:16:39;97314.00;;;5.61;77.29
78206;BME280;67480;48.920;12.880;2024-02-28T12:19:09;97317.63;;;5.60;78.05
78206;BME280;67480;48.920;12.880;2024-02-28T12:21:36;97309.63;;;5.62;78.06
78206;BME280;67480;48.920;12.880;2024-02-28T12:24:01;97318.25;;;5.62;77.73
78206;BME280;67480;48.920;12.880;2024-02-28T12:26:27;97316.25;;;5.64;78.28
78206;BME280;67480;48.920;12.880;2024-02-28T12:28:52;97319.50;;;5.66;78.44
78206;BME280;67480;48.920;12.880;2024-02-28T12:31:18;97316.25;;;5.64;77.85
78206;BME280;67480;48.920;12.880;2024-02-28T12:33:44;97312.69;;;5.65;77.72
78206;BME280;67480;48.920;12.880;2024-02-28T12:36:09;97322.09;;;5.66;77.24
78206;BME280;67480;48.920;12.880;2024-02-28T12:38:35;97313.50;;;5.66;77.26
78206;BME280;67480;48.920;12.880;2024-02-28T12:41:01;97309.91;;;5.67;77.69
78206;BME280;67480;48.920;12.880;2024-02-28T12:43:26;97317.53;;;5.69;77.34
78206;BME280;67480;48.920;12.880;2024-02-28T12:45:51;97320.28;;;5.67;77.49
78206;BME280;67480;48.920;12.880;2024-02-28T12:48:17;97312.34;;;5.69;77.20
78206;BME280;67480;48.920;12.880;2024-02-28T12:50:42;97317.53;;;5.69;77.23
78206;BME280;67480;48.920;12.880;2024-02-28T12:53:07;97321.09;;;5.67;77.93